sensor_id;sensor_type;location;lat;lon;timestamp;P1;durP1;ratioP1;P2;durP2;ratioP2
55254;SDS011;41118;44.634;11.182;2023-04-30T00:02:03;9.05;;;3.70;;
55254;SDS011;41118;44.634;11.182;2023-04-30T00:04:29;12.93;;;4.63;;
55254;SDS011;41118;44.634;11.182;2023-04-30T00:06:56;5.20;;;2.78;;
55254;SDS011;41118;44.634;11.182;2023-04-30T00:09:22;10.38;;;2.53;;
55254;SDS011;41118;44.634;11.182;2023-04-30T00:11:48;5.82;;;2.38;;
55254;SDS011;41118;44.634;11.182;2023-04-30T00:14:14;8.93;;;3.25;;
55254;SDS011;41118;44.634;11.182;2023-04-30T00:16:40;9.40;;;2.50;;
55254;SDS011;41118;44.634;11.182;2023-04-30T00:19:07;9.88;;;2.33;;
55254;SDS011;41118;44.634;11.182;2023-04-30T00:21:33;10.63;;;3.80;;
55254;SDS011;41118;44.634;11.182;2023-04-30T00:23:59;5.00;;;1.80;;
55254;SDS011;41118;44.634;11.182;2023-04-30T00:26:25;5.85;;;3.15;;
55254;SDS011;41118;44.634;11.182;2023-04-30T00:28:51;11.95;;;3.50;;
55254;SDS011;41118;44.634;11.182;2023-04-30T00:31:18;9.55;;;3.28;;
55254;SDS011;41118;44.634;11.182;2023-04-30T00:33:44;7.60;;;3.50;;
55254;SDS011;41118;44.634;11.182;2023-04-30T00:36:10;6.63;;;3.78;;
55254;SDS011;41118;44.634;11.182;2023-04-30T00:38:36;5.32;;;2.65;;
55254;SDS011;41118;44.634;11.182;2023-04-30T00:41:04;6.88;;;2.20;;
55254;SDS011;41118;44.634;11.182;2023-04-30T00:43:30;7.60;;;2.78;;
55254;SDS011;41118;44.634;11.182;2023-04-30T00:45:56;8.63;;;3.45;;
55254;SDS011;41118;44.634;11.182;2023-04-30T00:48:23;10.07;;;3.72;;
55254;SDS011;41118;44.634;11.182;2023-04-30T00:50:50;6.28;;;3.28;;
55254;SDS011;41118;44.634;11.182;2023-04-30T00:53:16;8.25;;;2.13;;
55254;SDS011;41118;44.634;11.182;2023-04-30T00:55:43;6.80;;;2.03;;
55254;SDS011;41118;44.634;11.182;2023-04-30T00:58:09;7.40;;;3.10;;
55254;SDS011;41118;44.634;11.182;2023-04-30T01:00:35;8.65;;;2.70;;
55254;SDS011;41118;44.634;11.182;2023-04-30T01:03:02;10.27;;;2.42;;
55254;SDS011;41118;44.634;11.182;2023-04-30T01:05:28;6.10;;;2.03;;
55254;SDS011;41118;44.634;11.182;2023-04-30T01:07:55;10.25;;;2.78;;
55254;SDS011;41118;44.634;11.182;2023-04-30T01:10:29;5.05;;;2.42;;
55254;SDS011;41118;44.634;11.182;2023-04-30T01:13:21;6.75;;;1.67;;
55254;SDS011;41118;44.634;11.182;2023-04-30T01:16:04;3.95;;;1.95;;
55254;SDS011;41118;44.634;11.182;2023-04-30T01:18:36;6.30;;;2.45;;
55254;SDS011;41118;44.634;11.182;2023-04-30T01:21:04;4.32;;;1.98;;
55254;SDS011;41118;44.634;11.182;2023-04-30T01:29:04;4.57;;;1.88;;
55254;SDS011;41118;44.634;11.182;2023-04-30T01:31:30;7.82;;;2.60;;
55254;SDS011;41118;44.634;11.182;2023-04-30T01:33:56;6.07;;;3.00;;
55254;SDS011;41118;44.634;11.182;2023-04-30T01:36:28;6.85;;;2.08;;
55254;SDS011;41118;44.634;11.182;2023-04-30T01:44:16;6.78;;;2.63;;
55254;SDS011;41118;44.634;11.182;2023-04-30T01:46:45;9.07;;;1.63;;
55254;SDS011;41118;44.634;11.182;2023-04-30T01:49:34;6.88;;;3.45;;
55254;SDS011;41118;44.634;11.182;2023-04-30T01:52:15;6.47;;;2.92;;
55254;SDS011;41118;44.634;11.182;2023-04-30T01:54:52;4.65;;;1.98;;
55254;SDS011;41118;44.634;11.182;2023-04-30T01:57:28;7.18;;;2.53;;
55254;SDS011;41118;44.634;11.182;2023-04-30T01:59:54;5.10;;;1.48;;
55254;SDS011;41118;44.634;11.182;2023-04-30T02:02:20;6.55;;;1.50;;
55254;SDS011;41118;44.634;11.182;2023-04-30T02:04:46;3.47;;;1.90;;
55254;SDS011;41118;44.634;11.182;2023-04-30T02:07:13;7.53;;;3.17;;
55254;SDS011;41118;44.634;11.182;2023-04-30T02:09:46;4.28;;;1.27;;
55254;SDS011;41118;44.634;11.182;2023-04-30T02:12:12;6.35;;;2.38;;
55254;SDS011;41118;44.634;11.182;2023-04-30T02:14:38;8.55;;;2.88;;
55254;SDS011;41118;44.634;11.182;2023-04-30T02:17:04;8.70;;;2.95;;
55254;SDS011;41118;44.634;11.182;2023-04-30T02:19:31;9.18;;;3.53;;
55254;SDS011;41118;44.634;11.182;2023-04-30T02:21:57;8.55;;;3.85;;
55254;SDS011;41118;44.634;11.182;2023-04-30T02:24:23;10.68;;;3.97;;
55254;SDS011;41118;44.634;11.182;2023-04-30T02:26:49;12.88;;;3.40;;
55254;SDS011;41118;44.634;11.182;2023-04-30T02:29:15;12.45;;;4.05;;
55254;SDS011;41118;44.634;11.182;2023-04-30T02:31:41;9.02;;;3.75;;
55254;SDS011;41118;44.634;11.182;2023-04-30T02:34:08;7.25;;;3.60;;
55254;SDS011;41118;44.634;11.182;2023-04-30T02:36:34;7.10;;;2.55;;
55254;SDS011;41118;44.634;11.182;2023-04-30T02:39:00;6.20;;;2.70;;
55254;SDS011;41118;44.634;11.182;2023-04-30T02:41:27;5.25;;;2.33;;
55254;SDS011;41118;44.634;11.182;2023-04-30T02:43:52;7.80;;;3.50;;
55254;SDS011;41118;44.634;11.182;2023-04-30T02:46:19;7.30;;;2.63;;
55254;SDS011;41118;44.634;11.182;2023-04-30T02:48:45;6.57;;;2.05;;
55254;SDS011;41118;44.634;11.182;2023-04-30T02:51:11;6.68;;;3.63;;
55254;SDS011;41118;44.634;11.182;2023-04-30T02:53:37;7.80;;;3.17;;
55254;SDS011;41118;44.634;11.182;2023-04-30T02:56:03;8.27;;;2.75;;
55254;SDS011;41118;44.634;11.182;2023-04-30T02:58:29;8.32;;;2.92;;
55254;SDS011;41118;44.634;11.182;2023-04-30T03:00:55;5.30;;;1.98;;
55254;SDS011;41118;44.634;11.182;2023-04-30T03:03:22;7.13;;;2.30;;
55254;SDS011;41118;44.634;11.182;2023-04-30T03:05:48;7.70;;;2.33;;
55254;SDS011;41118;44.634;11.182;2023-04-30T03:08:14;8.75;;;3.55;;
55254;SDS011;41118;44.634;11.182;2023-04-30T03:10:40;10.07;;;4.18;;
55254;SDS011;41118;44.634;11.182;2023-04-30T03:13:07;8.07;;;2.22;;
55254;SDS011;41118;44.634;11.182;2023-04-30T03:15:33;7.15;;;3.00;;
55254;SDS011;41118;44.634;11.182;2023-04-30T03:17:59;9.10;;;3.40;;
55254;SDS011;41118;44.634;11.182;2023-04-30T03:20:25;19.48;;;4.35;;
55254;SDS011;41118;44.634;11.182;2023-04-30T03:22:52;9.70;;;4.03;;
55254;SDS011;41118;44.634;11.182;2023-04-30T03:25:18;15.18;;;6.05;;
55254;SDS011;41118;44.634;11.182;2023-04-30T03:27:44;7.05;;;3.75;;
55254;SDS011;41118;44.634;11.182;2023-04-30T03:30:10;13.10;;;4.00;;
55254;SDS011;41118;44.634;11.182;2023-04-30T03:32:36;6.70;;;3.08;;
55254;SDS011;41118;44.634;11.182;2023-04-30T03:35:03;9.23;;;5.05;;
55254;SDS011;41118;44.634;11.182;2023-04-30T03:37:29;10.40;;;5.22;;
55254;SDS011;41118;44.634;11.182;2023-04-30T03:39:55;8.77;;;4.13;;
55254;SDS011;41118;44.634;11.182;2023-04-30T03:42:21;7.45;;;2.95;;
55254;SDS011;41118;44.634;11.182;2023-04-30T03:44:47;10.68;;;3.38;;
55254;SDS011;41118;44.634;11.182;2023-04-30T03:47:14;9.10;;;4.15;;
55254;SDS011;41118;44.634;11.182;2023-04-30T03:49:40;9.15;;;3.60;;
55254;SDS011;41118;44.634;11.182;2023-04-30T03:52:06;7.03;;;3.17;;
55254;SDS011;41118;44.634;11.182;2023-04-30T03:54:32;11.57;;;4.78;;
55254;SDS011;41118;44.634;11.182;2023-04-30T03:56:59;5.82;;;2.42;;
55254;SDS011;41118;44.634;11.182;2023-04-30T03:59:27;7.20;;;3.15;;
55254;SDS011;41118;44.634;11.182;2023-04-30T04:01:53;3.95;;;2.13;;
55254;SDS011;41118;44.634;11.182;2023-04-30T04:04:19;6.38;;;3.20;;
55254;SDS011;41118;44.634;11.182;2023-04-30T04:06:46;5.88;;;3.03;;
55254;SDS011;41118;44.634;11.182;2023-04-30T04:09:12;7.40;;;3.55;;
55254;SDS011;41118;44.634;11.182;2023-04-30T04:11:38;9.90;;;4.10;;
55254;SDS011;41118;44.634;11.182;2023-04-30T04:14:04;6.20;;;3.05;;
55254;SDS011;41118;44.634;11.182;2023-04-30T04:16:30;11.23;;;4.10;;
55254;SDS011;41118;44.634;11.182;2023-04-30T04:18:56;10.63;;;3.50;;
55254;SDS011;41118;44.634;11.182;2023-04-30T04:21:22;11.27;;;3.13;;
55254;SDS011;41118;44.634;11.182;2023-04-30T04:23:48;7.57;;;3.05;;
55254;SDS011;41118;44.634;11.182;2023-04-30T04:26:15;8.07;;;3.60;;
55254;SDS011;41118;44.634;11.182;2023-04-30T04:28:43;10.18;;;3.67;;
55254;SDS011;41118;44.634;11.182;2023-04-30T04:31:10;4.80;;;1.70;;
55254;SDS011;41118;44.634;11.182;2023-04-30T04:33:36;7.57;;;3.25;;
55254;SDS011;41118;44.634;11.182;2023-04-30T04:36:02;4.38;;;1.60;;
55254;SDS011;41118;44.634;11.182;2023-04-30T04:38:31;5.22;;;1.95;;
55254;SDS011;41118;44.634;11.182;2023-04-30T04:40:57;3.60;;;1.38;;
55254;SDS011;41118;44.634;11.182;2023-04-30T04:43:35;4.07;;;1.58;;
55254;SDS011;41118;44.634;11.182;2023-04-30T04:46:01;4.22;;;1.95;;
55254;SDS011;41118;44.634;11.182;2023-04-30T04:48:28;5.50;;;2.47;;
55254;SDS011;41118;44.634;11.182;2023-04-30T04:50:54;5.00;;;1.80;;
55254;SDS011;41118;44.634;11.182;2023-04-30T04:53:20;2.78;;;0.88;;
55254;SDS011;41118;44.634;11.182;2023-04-30T04:55:48;5.47;;;1.13;;
55254;SDS011;41118;44.634;11.182;2023-04-30T04:58:14;4.55;;;1.27;;
55254;SDS011;41118;44.634;11.182;2023-04-30T05:00:40;6.20;;;2.00;;
55254;SDS011;41118;44.634;11.182;2023-04-30T05:03:06;4.68;;;2.00;;
55254;SDS011;41118;44.634;11.182;2023-04-30T05:05:33;7.53;;;2.08;;
55254;SDS011;41118;44.634;11.182;2023-04-30T05:08:00;7.35;;;1.92;;
55254;SDS011;41118;44.634;11.182;2023-04-30T05:10:26;5.68;;;1.90;;
55254;SDS011;41118;44.634;11.182;2023-04-30T05:12:52;9.52;;;2.40;;
55254;SDS011;41118;44.634;11.182;2023-04-30T05:15:18;4.30;;;2.00;;
55254;SDS011;41118;44.634;11.182;2023-04-30T05:17:44;6.40;;;3.10;;
55254;SDS011;41118;44.634;11.182;2023-04-30T05:20:11;4.47;;;1.33;;
55254;SDS011;41118;44.634;11.182;2023-04-30T05:22:37;5.90;;;2.72;;
55254;SDS011;41118;44.634;11.182;2023-04-30T05:25:04;6.57;;;2.35;;
55254;SDS011;41118;44.634;11.182;2023-04-30T05:27:30;14.13;;;2.72;;
55254;SDS011;41118;44.634;11.182;2023-04-30T05:29:56;8.82;;;1.85;;
55254;SDS011;41118;44.634;11.182;2023-04-30T05:32:22;7.15;;;2.25;;
55254;SDS011;41118;44.634;11.182;2023-04-30T05:34:49;6.68;;;2.20;;
55254;SDS011;41118;44.634;11.182;2023-04-30T05:37:15;7.85;;;1.88;;
55254;SDS011;41118;44.634;11.182;2023-04-30T05:39:43;10.05;;;3.30;;
55254;SDS011;41118;44.634;11.182;2023-04-30T05:42:09;8.02;;;2.00;;
55254;SDS011;41118;44.634;11.182;2023-04-30T05:44:36;11.57;;;3.20;;
55254;SDS011;41118;44.634;11.182;2023-04-30T05:47:02;9.75;;;3.72;;
55254;SDS011;41118;44.634;11.182;2023-04-30T05:49:28;11.18;;;3.03;;
55254;SDS011;41118;44.634;11.182;2023-04-30T05:51:54;7.18;;;2.22;;
55254;SDS011;41118;44.634;11.182;2023-04-30T05:54:20;15.13;;;3.05;;
55254;SDS011;41118;44.634;11.182;2023-04-30T05:56:46;11.52;;;3.15;;
55254;SDS011;41118;44.634;11.182;2023-04-30T05:59:12;12.13;;;4.20;;
55254;SDS011;41118;44.634;11.182;2023-04-30T06:01:38;8.48;;;2.58;;
55254;SDS011;41118;44.634;11.182;2023-04-30T06:04:05;8.77;;;3.35;;
55254;SDS011;41118;44.634;11.182;2023-04-30T06:06:33;8.38;;;3.20;;
55254;SDS011;41118;44.634;11.182;2023-04-30T06:08:59;11.02;;;2.78;;
55254;SDS011;41118;44.634;11.182;2023-04-30T06:11:25;8.45;;;2.45;;
55254;SDS011;41118;44.634;11.182;2023-04-30T06:13:52;9.55;;;2.92;;
55254;SDS011;41118;44.634;11.182;2023-04-30T06:16:18;9.77;;;2.58;;
55254;SDS011;41118;44.634;11.182;2023-04-30T06:18:44;9.13;;;3.70;;
55254;SDS011;41118;44.634;11.182;2023-04-30T06:21:10;7.43;;;2.35;;
55254;SDS011;41118;44.634;11.182;2023-04-30T06:23:36;8.90;;;2.70;;
55254;SDS011;41118;44.634;11.182;2023-04-30T06:26:02;6.85;;;2.08;;
55254;SDS011;41118;44.634;11.182;2023-04-30T06:28:28;10.85;;;4.22;;
55254;SDS011;41118;44.634;11.182;2023-04-30T06:30:54;7.75;;;3.00;;
55254;SDS011;41118;44.634;11.182;2023-04-30T06:33:20;8.48;;;3.67;;
55254;SDS011;41118;44.634;11.182;2023-04-30T06:35:46;10.00;;;3.15;;
55254;SDS011;41118;44.634;11.182;2023-04-30T06:38:14;9.40;;;2.85;;
55254;SDS011;41118;44.634;11.182;2023-04-30T06:40:41;9.32;;;3.00;;
55254;SDS011;41118;44.634;11.182;2023-04-30T06:43:08;8.77;;;2.20;;
55254;SDS011;41118;44.634;11.182;2023-04-30T06:45:34;8.05;;;2.72;;
55254;SDS011;41118;44.634;11.182;2023-04-30T06:48:00;9.63;;;1.60;;
55254;SDS011;41118;44.634;11.182;2023-04-30T06:50:26;14.50;;;3.28;;
55254;SDS011;41118;44.634;11.182;2023-04-30T06:52:52;8.98;;;3.65;;
55254;SDS011;41118;44.634;11.182;2023-04-30T06:55:19;11.50;;;4.00;;
55254;SDS011;41118;44.634;11.182;2023-04-30T06:57:45;6.97;;;1.80;;
55254;SDS011;41118;44.634;11.182;2023-04-30T07:00:11;11.43;;;3.13;;
55254;SDS011;41118;44.634;11.182;2023-04-30T07:02:39;7.68;;;2.55;;
55254;SDS011;41118;44.634;11.182;2023-04-30T07:05:05;10.73;;;3.25;;
55254;SDS011;41118;44.634;11.182;2023-04-30T07:07:31;4.25;;;1.40;;
55254;SDS011;41118;44.634;11.182;2023-04-30T07:09:58;7.45;;;2.33;;
55254;SDS011;41118;44.634;11.182;2023-04-30T07:12:24;8.40;;;2.00;;
55254;SDS011;41118;44.634;11.182;2023-04-30T07:14:50;7.03;;;2.67;;
55254;SDS011;41118;44.634;11.182;2023-04-30T07:17:17;7.93;;;2.22;;
55254;SDS011;41118;44.634;11.182;2023-04-30T07:19:43;10.23;;;1.73;;
55254;SDS011;41118;44.634;11.182;2023-04-30T07:22:09;6.30;;;2.05;;
55254;SDS011;41118;44.634;11.182;2023-04-30T07:24:35;6.03;;;2.03;;
55254;SDS011;41118;44.634;11.182;2023-04-30T07:27:02;7.80;;;1.88;;
55254;SDS011;41118;44.634;11.182;2023-04-30T07:29:28;10.70;;;3.08;;
55254;SDS011;41118;44.634;11.182;2023-04-30T07:31:54;8.30;;;2.75;;
55254;SDS011;41118;44.634;11.182;2023-04-30T07:34:20;6.75;;;1.73;;
55254;SDS011;41118;44.634;11.182;2023-04-30T07:36:47;9.93;;;2.53;;
55254;SDS011;41118;44.634;11.182;2023-04-30T07:39:14;10.18;;;2.10;;
55254;SDS011;41118;44.634;11.182;2023-04-30T07:41:41;12.05;;;2.28;;
55254;SDS011;41118;44.634;11.182;2023-04-30T07:44:07;8.32;;;3.17;;
55254;SDS011;41118;44.634;11.182;2023-04-30T07:46:35;10.98;;;3.25;;
55254;SDS011;41118;44.634;11.182;2023-04-30T07:49:02;12.80;;;5.03;;
55254;SDS011;41118;44.634;11.182;2023-04-30T07:51:28;14.00;;;4.22;;
55254;SDS011;41118;44.634;11.182;2023-04-30T07:53:54;17.02;;;4.65;;
55254;SDS011;41118;44.634;11.182;2023-04-30T07:56:20;10.20;;;3.72;;
55254;SDS011;41118;44.634;11.182;2023-04-30T07:58:46;16.83;;;4.32;;
55254;SDS011;41118;44.634;11.182;2023-04-30T08:01:14;12.40;;;4.45;;
55254;SDS011;41118;44.634;11.182;2023-04-30T08:03:40;9.93;;;4.57;;
55254;SDS011;41118;44.634;11.182;2023-04-30T08:06:06;8.55;;;3.97;;
55254;SDS011;41118;44.634;11.182;2023-04-30T08:08:32;7.57;;;3.10;;
55254;SDS011;41118;44.634;11.182;2023-04-30T08:10:59;7.63;;;3.47;;
55254;SDS011;41118;44.634;11.182;2023-04-30T08:13:25;11.40;;;3.25;;
55254;SDS011;41118;44.634;11.182;2023-04-30T08:15:51;7.28;;;3.15;;
55254;SDS011;41118;44.634;11.182;2023-04-30T08:18:17;7.82;;;2.47;;
55254;SDS011;41118;44.634;11.182;2023-04-30T08:20:43;9.45;;;2.33;;
55254;SDS011;41118;44.634;11.182;2023-04-30T08:23:10;10.18;;;2.90;;
55254;SDS011;41118;44.634;11.182;2023-04-30T08:25:36;6.90;;;3.28;;
55254;SDS011;41118;44.634;11.182;2023-04-30T08:28:02;8.63;;;4.53;;
55254;SDS011;41118;44.634;11.182;2023-04-30T08:30:29;8.82;;;3.17;;
55254;SDS011;41118;44.634;11.182;2023-04-30T08:32:55;9.75;;;2.17;;
55254;SDS011;41118;44.634;11.182;2023-04-30T08:35:21;4.18;;;1.88;;
55254;SDS011;41118;44.634;11.182;2023-04-30T08:37:47;9.25;;;1.30;;
55254;SDS011;41118;44.634;11.182;2023-04-30T08:40:14;8.68;;;1.50;;
55254;SDS011;41118;44.634;11.182;2023-04-30T08:42:42;8.15;;;1.42;;
55254;SDS011;41118;44.634;11.182;2023-04-30T08:45:10;6.47;;;1.98;;
55254;SDS011;41118;44.634;11.182;2023-04-30T08:47:37;6.18;;;2.15;;
55254;SDS011;41118;44.634;11.182;2023-04-30T08:50:04;6.03;;;2.28;;
55254;SDS011;41118;44.634;11.182;2023-04-30T08:52:31;8.38;;;2.28;;
55254;SDS011;41118;44.634;11.182;2023-04-30T08:55:00;5.00;;;1.45;;
55254;SDS011;41118;44.634;11.182;2023-04-30T08:57:26;5.05;;;2.03;;
55254;SDS011;41118;44.634;11.182;2023-04-30T08:59:53;8.93;;;2.38;;
55254;SDS011;41118;44.634;11.182;2023-04-30T09:02:19;5.22;;;2.00;;
55254;SDS011;41118;44.634;11.182;2023-04-30T09:04:45;7.53;;;1.45;;
55254;SDS011;41118;44.634;11.182;2023-04-30T09:07:12;4.45;;;0.80;;
55254;SDS011;41118;44.634;11.182;2023-04-30T09:09:38;9.38;;;0.82;;
55254;SDS011;41118;44.634;11.182;2023-04-30T09:12:15;10.93;;;2.88;;
55254;SDS011;41118;44.634;11.182;2023-04-30T09:14:59;7.00;;;1.10;;
55254;SDS011;41118;44.634;11.182;2023-04-30T09:17:26;4.45;;;1.27;;
55254;SDS011;41118;44.634;11.182;2023-04-30T09:19:52;6.53;;;2.45;;
55254;SDS011;41118;44.634;11.182;2023-04-30T09:22:22;9.10;;;0.93;;
55254;SDS011;41118;44.634;11.182;2023-04-30T09:24:48;5.45;;;1.00;;
55254;SDS011;41118;44.634;11.182;2023-04-30T09:27:15;6.05;;;2.60;;
55254;SDS011;41118;44.634;11.182;2023-04-30T09:29:41;7.93;;;1.58;;
55254;SDS011;41118;44.634;11.182;2023-04-30T09:32:07;8.80;;;1.55;;
55254;SDS011;41118;44.634;11.182;2023-04-30T09:34:34;6.07;;;1.35;;
55254;SDS011;41118;44.634;11.182;2023-04-30T09:37:00;5.78;;;1.95;;
55254;SDS011;41118;44.634;11.182;2023-04-30T09:39:26;11.23;;;2.30;;
55254;SDS011;41118;44.634;11.182;2023-04-30T09:41:52;5.95;;;0.95;;
55254;SDS011;41118;44.634;11.182;2023-04-30T09:44:28;6.63;;;0.95;;
55254;SDS011;41118;44.634;11.182;2023-04-30T09:46:55;4.38;;;1.58;;
55254;SDS011;41118;44.634;11.182;2023-04-30T09:49:21;6.25;;;1.63;;
55254;SDS011;41118;44.634;11.182;2023-04-30T09:51:58;5.25;;;1.80;;
55254;SDS011;41118;44.634;11.182;2023-04-30T09:54:25;4.75;;;1.23;;
55254;SDS011;41118;44.634;11.182;2023-04-30T09:56:55;2.30;;;0.70;;
55254;SDS011;41118;44.634;11.182;2023-04-30T09:59:29;4.60;;;1.30;;
55254;SDS011;41118;44.634;11.182;2023-04-30T10:01:59;4.72;;;1.30;;
55254;SDS011;41118;44.634;11.182;2023-04-30T10:07:19;3.45;;;1.05;;
55254;SDS011;41118;44.634;11.182;2023-04-30T10:09:58;3.67;;;1.35;;
55254;SDS011;41118;44.634;11.182;2023-04-30T10:12:50;4.75;;;1.42;;
55254;SDS011;41118;44.634;11.182;2023-04-30T10:15:24;5.38;;;1.83;;
55254;SDS011;41118;44.634;11.182;2023-04-30T10:20:47;2.55;;;0.65;;
55254;SDS011;41118;44.634;11.182;2023-04-30T10:23:13;3.80;;;0.70;;
55254;SDS011;41118;44.634;11.182;2023-04-30T10:25:40;4.43;;;0.95;;
55254;SDS011;41118;44.634;11.182;2023-04-30T10:28:07;4.10;;;0.50;;
55254;SDS011;41118;44.634;11.182;2023-04-30T10:30:36;8.15;;;0.50;;
55254;SDS011;41118;44.634;11.182;2023-04-30T10:33:05;5.13;;;1.23;;
55254;SDS011;41118;44.634;11.182;2023-04-30T10:35:52;3.40;;;0.50;;
55254;SDS011;41118;44.634;11.182;2023-04-30T10:38:21;3.33;;;0.40;;
55254;SDS011;41118;44.634;11.182;2023-04-30T10:40:48;2.30;;;0.40;;
55254;SDS011;41118;44.634;11.182;2023-04-30T10:43:17;2.28;;;0.40;;
55254;SDS011;41118;44.634;11.182;2023-04-30T10:45:46;5.28;;;0.55;;
55254;SDS011;41118;44.634;11.182;2023-04-30T10:48:13;7.15;;;0.95;;
55254;SDS011;41118;44.634;11.182;2023-04-30T10:50:40;6.72;;;0.82;;
55254;SDS011;41118;44.634;11.182;2023-04-30T10:53:08;6.65;;;0.70;;
55254;SDS011;41118;44.634;11.182;2023-04-30T10:55:43;3.63;;;0.65;;
55254;SDS011;41118;44.634;11.182;2023-04-30T11:00:58;2.85;;;0.70;;
55254;SDS011;41118;44.634;11.182;2023-04-30T11:03:26;5.35;;;0.70;;
55254;SDS011;41118;44.634;11.182;2023-04-30T11:05:52;3.92;;;0.98;;
55254;SDS011;41118;44.634;11.182;2023-04-30T11:08:19;3.42;;;0.68;;
55254;SDS011;41118;44.634;11.182;2023-04-30T11:10:57;5.22;;;0.93;;
55254;SDS011;41118;44.634;11.182;2023-04-30T11:13:28;3.90;;;0.65;;
55254;SDS011;41118;44.634;11.182;2023-04-30T11:16:03;3.90;;;0.80;;
55254;SDS011;41118;44.634;11.182;2023-04-30T11:18:29;3.72;;;1.05;;
55254;SDS011;41118;44.634;11.182;2023-04-30T11:20:56;3.42;;;0.85;;
55254;SDS011;41118;44.634;11.182;2023-04-30T11:23:22;3.83;;;0.73;;
55254;SDS011;41118;44.634;11.182;2023-04-30T11:25:52;4.18;;;1.17;;
55254;SDS011;41118;44.634;11.182;2023-04-30T11:28:20;3.15;;;0.73;;
55254;SDS011;41118;44.634;11.182;2023-04-30T11:30:50;3.80;;;0.90;;
55254;SDS011;41118;44.634;11.182;2023-04-30T11:33:16;6.25;;;0.85;;
55254;SDS011;41118;44.634;11.182;2023-04-30T11:35:43;1.55;;;0.70;;
55254;SDS011;41118;44.634;11.182;2023-04-30T11:38:12;3.03;;;0.93;;
55254;SDS011;41118;44.634;11.182;2023-04-30T11:40:39;6.13;;;0.63;;
55254;SDS011;41118;44.634;11.182;2023-04-30T11:43:05;1.67;;;0.40;;
55254;SDS011;41118;44.634;11.182;2023-04-30T11:45:32;2.08;;;0.70;;
55254;SDS011;41118;44.634;11.182;2023-04-30T11:47:58;3.85;;;1.02;;
55254;SDS011;41118;44.634;11.182;2023-04-30T11:50:25;5.50;;;1.05;;
55254;SDS011;41118;44.634;11.182;2023-04-30T11:52:53;3.42;;;1.35;;
55254;SDS011;41118;44.634;11.182;2023-04-30T11:55:24;3.33;;;1.15;;
55254;SDS011;41118;44.634;11.182;2023-04-30T11:57:54;2.78;;;0.40;;
55254;SDS011;41118;44.634;11.182;2023-04-30T12:00:27;3.22;;;0.60;;
55254;SDS011;41118;44.634;11.182;2023-04-30T12:02:54;2.55;;;0.40;;
55254;SDS011;41118;44.634;11.182;2023-04-30T12:05:21;2.65;;;0.30;;
55254;SDS011;41118;44.634;11.182;2023-04-30T12:07:48;1.55;;;0.50;;
55254;SDS011;41118;44.634;11.182;2023-04-30T12:10:14;2.35;;;0.30;;
55254;SDS011;41118;44.634;11.182;2023-04-30T12:12:41;3.08;;;0.98;;
55254;SDS011;41118;44.634;11.182;2023-04-30T12:15:11;2.15;;;0.43;;
55254;SDS011;41118;44.634;11.182;2023-04-30T12:17:37;1.40;;;0.30;;
55254;SDS011;41118;44.634;11.182;2023-04-30T12:20:03;4.22;;;0.20;;
55254;SDS011;41118;44.634;11.182;2023-04-30T12:22:30;2.17;;;0.50;;
55254;SDS011;41118;44.634;11.182;2023-04-30T12:24:58;2.58;;;0.30;;
55254;SDS011;41118;44.634;11.182;2023-04-30T12:27:24;0.85;;;0.30;;
55254;SDS011;41118;44.634;11.182;2023-04-30T12:29:51;3.60;;;0.30;;
55254;SDS011;41118;44.634;11.182;2023-04-30T12:32:20;1.10;;;0.20;;
55254;SDS011;41118;44.634;11.182;2023-04-30T12:34:46;0.85;;;0.20;;
55254;SDS011;41118;44.634;11.182;2023-04-30T12:37:15;3.22;;;0.20;;
55254;SDS011;41118;44.634;11.182;2023-04-30T12:39:42;0.75;;;0.20;;
55254;SDS011;41118;44.634;11.182;2023-04-30T12:42:08;0.45;;;0.10;;
55254;SDS011;41118;44.634;11.182;2023-04-30T12:44:42;2.13;;;0.10;;
55254;SDS011;41118;44.634;11.182;2023-04-30T12:47:08;1.58;;;0.28;;
55254;SDS011;41118;44.634;11.182;2023-04-30T12:49:35;2.08;;;0.10;;
55254;SDS011;41118;44.634;11.182;2023-04-30T12:52:02;0.50;;;0.10;;
55254;SDS011;41118;44.634;11.182;2023-04-30T12:54:29;2.83;;;0.20;;
55254;SDS011;41118;44.634;11.182;2023-04-30T12:57:02;0.98;;;0.20;;
55254;SDS011;41118;44.634;11.182;2023-04-30T12:59:29;0.80;;;0.20;;
55254;SDS011;41118;44.634;11.182;2023-04-30T13:02:05;0.95;;;0.10;;
55254;SDS011;41118;44.634;11.182;2023-04-30T13:04:32;0.85;;;0.20;;
55254;SDS011;41118;44.634;11.182;2023-04-30T13:06:58;2.22;;;0.68;;
55254;SDS011;41118;44.634;11.182;2023-04-30T13:09:24;1.38;;;0.20;;
55254;SDS011;41118;44.634;11.182;2023-04-30T13:11:50;1.58;;;0.17;;
55254;SDS011;41118;44.634;11.182;2023-04-30T13:14:16;2.75;;;0.20;;
55254;SDS011;41118;44.634;11.182;2023-04-30T13:16:42;1.40;;;0.15;;
55254;SDS011;41118;44.634;11.182;2023-04-30T13:19:09;3.13;;;0.75;;
55254;SDS011;41118;44.634;11.182;2023-04-30T13:21:36;0.68;;;0.30;;
55254;SDS011;41118;44.634;11.182;2023-04-30T13:24:02;3.13;;;0.20;;
55254;SDS011;41118;44.634;11.182;2023-04-30T13:26:28;0.38;;;0.10;;
55254;SDS011;41118;44.634;11.182;2023-04-30T13:28:54;2.75;;;0.30;;
55254;SDS011;41118;44.634;11.182;2023-04-30T13:31:20;1.90;;;0.22;;
55254;SDS011;41118;44.634;11.182;2023-04-30T13:33:46;0.35;;;0.20;;
55254;SDS011;41118;44.634;11.182;2023-04-30T13:36:12;0.85;;;0.20;;
55254;SDS011;41118;44.634;11.182;2023-04-30T13:38:39;4.75;;;0.40;;
55254;SDS011;41118;44.634;11.182;2023-04-30T13:41:05;4.07;;;1.10;;
55254;SDS011;41118;44.634;11.182;2023-04-30T13:43:31;9.85;;;3.88;;
55254;SDS011;41118;44.634;11.182;2023-04-30T13:45:58;1.15;;;0.10;;
55254;SDS011;41118;44.634;11.182;2023-04-30T13:48:24;3.60;;;0.20;;
55254;SDS011;41118;44.634;11.182;2023-04-30T13:50:53;2.00;;;0.20;;
55254;SDS011;41118;44.634;11.182;2023-04-30T13:53:19;0.82;;;0.20;;
55254;SDS011;41118;44.634;11.182;2023-04-30T13:55:45;0.70;;;0.20;;
55254;SDS011;41118;44.634;11.182;2023-04-30T13:58:11;3.95;;;0.30;;
55254;SDS011;41118;44.634;11.182;2023-04-30T14:00:37;1.73;;;0.20;;
55254;SDS011;41118;44.634;11.182;2023-04-30T14:03:03;3.08;;;0.15;;
55254;SDS011;41118;44.634;11.182;2023-04-30T14:05:30;0.82;;;0.20;;
55254;SDS011;41118;44.634;11.182;2023-04-30T14:07:56;1.42;;;0.30;;
55254;SDS011;41118;44.634;11.182;2023-04-30T14:10:22;8.82;;;0.35;;
55254;SDS011;41118;44.634;11.182;2023-04-30T14:12:48;0.63;;;0.10;;
55254;SDS011;41118;44.634;11.182;2023-04-30T14:15:15;0.63;;;0.20;;
55254;SDS011;41118;44.634;11.182;2023-04-30T14:17:41;1.00;;;0.50;;
55254;SDS011;41118;44.634;11.182;2023-04-30T14:20:10;0.73;;;0.10;;
55254;SDS011;41118;44.634;11.182;2023-04-30T14:22:36;0.65;;;0.10;;
55254;SDS011;41118;44.634;11.182;2023-04-30T14:25:03;1.10;;;0.13;;
55254;SDS011;41118;44.634;11.182;2023-04-30T14:27:29;0.50;;;0.10;;
55254;SDS011;41118;44.634;11.182;2023-04-30T14:29:55;2.35;;;0.28;;
55254;SDS011;41118;44.634;11.182;2023-04-30T14:32:25;1.38;;;0.20;;
55254;SDS011;41118;44.634;11.182;2023-04-30T14:34:51;0.98;;;0.20;;
55254;SDS011;41118;44.634;11.182;2023-04-30T14:37:17;1.95;;;0.20;;
55254;SDS011;41118;44.634;11.182;2023-04-30T14:39:44;2.90;;;0.40;;
55254;SDS011;41118;44.634;11.182;2023-04-30T14:42:10;1.67;;;0.20;;
55254;SDS011;41118;44.634;11.182;2023-04-30T14:44:36;1.00;;;0.20;;
55254;SDS011;41118;44.634;11.182;2023-04-30T14:47:03;0.73;;;0.20;;
55254;SDS011;41118;44.634;11.182;2023-04-30T14:49:29;0.70;;;0.40;;
55254;SDS011;41118;44.634;11.182;2023-04-30T14:51:55;4.22;;;0.10;;
55254;SDS011;41118;44.634;11.182;2023-04-30T14:54:22;1.50;;;0.63;;